Time;durP1;ratioP1;P1;durP2;ratioP2;P2;SDS_P1;SDS_P2;PMS_P1;PMS_P2;Temp;Humidity;BMP_temperature;BMP_pressure;BME280_temperature;BME280_humidity;BME280_pressure;Samples;Min_cycle;Max_cycle;Signal;HPM_P1;HPM_P2
2024/01/06 00:02:01;;;;;;;13.88;7.80;;;-15.70;90.90;;;;;;5035125;28;20021;-84
2024/01/06 00:04:27;;;;;;;9.93;6.88;;;-15.70;91.00;;;;;;5015866;28;20034;-85
2024/01/06 00:06:53;;;;;;;17.98;8.02;;;-15.60;91.10;;;;;;5033650;28;20081;-84
2024/01/06 00:09:19;;;;;;;15.37;9.03;;;-15.50;91.20;;;;;;5028499;28;20094;-83
2024/01/06 00:11:45;;;;;;;15.90;6.47;;;-15.50;91.20;;;;;;5020275;28;20116;-84
2024/01/06 00:14:11;;;;;;;13.17;6.63;;;-15.50;91.30;;;;;;5033924;28;20386;-84
2024/01/06 00:16:36;;;;;;;14.27;7.17;;;-15.40;91.40;;;;;;5034973;28;20075;-84
2024/01/06 00:19:02;;;;;;;11.50;6.50;;;-15.40;91.40;;;;;;5030041;28;20017;-84
2024/01/06 00:21:28;;;;;;;15.07;7.17;;;-15.40;91.40;;;;;;5029215;28;20390;-84
2024/01/06 00:23:55;;;;;;;10.57;4.90;;;-15.50;91.30;;;;;;5015123;28;20044;-83
2024/01/06 00:26:21;;;;;;;12.18;5.78;;;-15.50;91.40;;;;;;5025530;28;20049;-82
2024/01/06 00:28:49;;;;;;;8.13;5.33;;;-15.50;91.50;;;;;;5013526;28;20459;-82
2024/01/06 00:31:19;;;;;;;11.48;5.68;;;-15.50;91.60;;;;;;5033216;28;20017;-82
2024/01/06 00:33:45;;;;;;;11.60;5.15;;;-15.50;91.60;;;;;;5029994;28;20040;-83
2024/01/06 00:36:11;;;;;;;11.73;6.77;;;-15.60;91.60;;;;;;5025756;28;20030;-85
2024/01/06 00:38:37;;;;;;;4.47;3.77;;;-15.70;91.60;;;;;;5036003;28;20025;-84
2024/01/06 00:41:03;;;;;;;10.70;5.77;;;-15.80;91.70;;;;;;5051226;28;20017;-83
2024/01/06 00:43:28;;;;;;;9.10;5.37;;;-15.90;91.80;;;;;;5035984;28;20022;-83
2024/01/06 00:45:54;;;;;;;12.37;5.13;;;-15.90;92.10;;;;;;5034889;28;20017;-84
2024/01/06 00:48:20;;;;;;;9.43;4.97;;;-15.90;92.30;;;;;;5034782;28;20049;-82
2024/01/06 00:50:46;;;;;;;11.90;4.53;;;-15.90;92.40;;;;;;5018972;28;20021;-85
2024/01/06 00:53:12;;;;;;;11.70;6.73;;;-16.00;92.40;;;;;;5016870;28;20032;-84
2024/01/06 00:55:38;;;;;;;13.55;4.13;;;-16.00;92.60;;;;;;5030313;28;20644;-84
2024/01/06 00:58:04;;;;;;;10.67;5.73;;;-15.90;92.80;;;;;;5033704;28;20022;-84
2024/01/06 01:00:30;;;;;;;17.43;8.27;;;-15.90;92.90;;;;;;5035127;28;20025;-84
2024/01/06 01:02:58;;;;;;;15.17;5.50;;;-15.80;93.00;;;;;;5015681;28;20095;-85
2024/01/06 01:05:24;;;;;;;10.95;5.13;;;-15.70;93.10;;;;;;5020899;28;20390;-87
2024/01/06 01:07:50;;;;;;;11.67;7.33;;;-15.60;93.10;;;;;;5017679;28;20041;-83
2024/01/06 01:10:15;;;;;;;9.10;5.40;;;-15.60;93.20;;;;;;5020832;28;20026;-85
2024/01/06 01:12:41;;;;;;;12.70;5.40;;;-15.50;93.30;;;;;;5030389;28;20073;-83
2024/01/06 01:15:07;;;;;;;13.10;5.63;;;-15.50;93.10;;;;;;5026315;28;20060;-84
2024/01/06 01:17:33;;;;;;;13.35;7.10;;;-15.50;93.00;;;;;;5026915;28;20021;-83
2024/01/06 01:19:59;;;;;;;9.17;5.27;;;-15.60;93.10;;;;;;5031128;28;20445;-82
2024/01/06 01:22:25;;;;;;;11.47;5.33;;;-15.50;93.20;;;;;;5017558;28;20033;-85
2024/01/06 01:24:51;;;;;;;7.43;4.40;;;-15.40;93.20;;;;;;5039688;28;20026;-83
2024/01/06 01:27:17;;;;;;;15.17;6.93;;;-15.40;93.10;;;;;;5055781;28;20017;-82
2024/01/06 01:29:42;;;;;;;11.30;5.57;;;-15.50;93.00;;;;;;5033807;28;20025;-83
2024/01/06 01:32:08;;;;;;;17.13;6.40;;;-15.50;93.10;;;;;;5048300;28;20009;-84
2024/01/06 01:34:34;;;;;;;12.37;7.30;;;-15.40;93.20;;;;;;5054888;28;20029;-83
2024/01/06 01:37:00;;;;;;;12.03;5.47;;;-15.30;93.30;;;;;;5031346;28;20067;-84
2024/01/06 01:39:26;;;;;;;15.67;6.10;;;-15.20;93.20;;;;;;5029577;28;20021;-84
2024/01/06 01:41:52;;;;;;;12.80;6.40;;;-15.20;93.20;;;;;;5042736;28;20018;-85
2024/01/06 01:44:18;;;;;;;13.70;6.37;;;-15.20;93.10;;;;;;5037590;28;20028;-85
2024/01/06 01:46:44;;;;;;;11.53;5.13;;;-15.20;93.00;;;;;;5047304;28;20022;-83
2024/01/06 01:49:10;;;;;;;4.00;3.53;;;-15.20;92.90;;;;;;5032405;28;20472;-85
2024/01/06 01:51:36;;;;;;;10.67;5.00;;;-15.30;92.80;;;;;;5021794;28;20051;-85
2024/01/06 01:54:04;;;;;;;10.25;5.72;;;-15.50;92.70;;;;;;5024955;28;20091;-85
2024/01/06 01:56:34;;;;;;;7.35;4.97;;;-15.60;92.80;;;;;;5011951;28;20030;-83
2024/01/06 01:59:07;;;;;;;7.70;4.10;;;-15.60;92.90;;;;;;5033511;28;20105;-85
2024/01/06 02:01:34;;;;;;;10.85;6.50;;;-15.70;92.90;;;;;;5023140;28;20505;-83
2024/01/06 02:04:00;;;;;;;13.77;6.30;;;-15.70;93.00;;;;;;5033479;28;20032;-84
2024/01/06 02:06:25;;;;;;;9.77;5.93;;;-15.60;93.10;;;;;;5015483;28;20025;-84
2024/01/06 02:08:51;;;;;;;11.63;5.13;;;-15.40;93.20;;;;;;5031712;28;20040;-85
2024/01/06 02:11:17;;;;;;;5.47;3.10;;;-15.40;93.10;;;;;;5013800;28;20100;-85
2024/01/06 02:13:43;;;;;;;7.90;4.43;;;-15.50;92.80;;;;;;5030298;28;20050;-84
2024/01/06 02:16:09;;;;;;;3.47;2.33;;;-15.60;92.90;;;;;;5016749;28;20049;-86
2024/01/06 02:18:34;;;;;;;11.80;4.47;;;-15.50;93.00;;;;;;5018975;28;20018;-86
2024/01/06 02:21:02;;;;;;;3.57;3.13;;;-15.60;92.80;;;;;;5046151;28;20029;-86
2024/01/06 02:23:28;;;;;;;8.05;4.22;;;-15.80;92.80;;;;;;5038697;28;20076;-85
2024/01/06 02:25:55;;;;;;;2.10;1.63;;;-15.90;93.00;;;;;;5033363;28;20044;-86
2024/01/06 02:28:21;;;;;;;12.52;6.47;;;-15.80;93.30;;;;;;5029837;28;20571;-87
2024/01/06 02:30:47;;;;;;;6.37;2.50;;;-15.90;93.20;;;;;;5013851;28;20108;-87
2024/01/06 02:33:13;;;;;;;5.00;3.15;;;-15.80;93.40;;;;;;5014482;28;20022;-85
2024/01/06 02:35:40;;;;;;;8.20;4.87;;;-15.90;93.40;;;;;;5014671;28;20084;-86
2024/01/06 02:38:06;;;;;;;5.05;3.03;;;-15.90;93.60;;;;;;4999760;28;20310;-87
2024/01/06 02:40:32;;;;;;;11.95;5.20;;;-15.90;93.70;;;;;;5032151;28;20033;-84
2024/01/06 02:42:59;;;;;;;12.43;5.20;;;-15.90;93.90;;;;;;5015169;28;20026;-85
2024/01/06 02:45:25;;;;;;;9.73;4.38;;;-15.80;94.20;;;;;;5029824;28;20263;-85
2024/01/06 02:47:51;;;;;;;8.77;4.60;;;-15.70;94.30;;;;;;5019526;28;20042;-85
2024/01/06 02:50:17;;;;;;;14.45;6.22;;;-15.70;94.40;;;;;;5045987;28;20028;-86
2024/01/06 02:52:45;;;;;;;8.73;2.88;;;-15.70;94.60;;;;;;5024790;28;20030;-85
2024/01/06 02:55:11;;;;;;;10.20;5.57;;;-15.60;94.70;;;;;;5017329;28;20032;-84
2024/01/06 02:57:38;;;;;;;5.85;2.97;;;-15.60;94.70;;;;;;5021618;28;20494;-85
2024/01/06 03:00:04;;;;;;;9.82;7.05;;;-15.60;94.50;;;;;;5042688;28;20021;-83
2024/01/06 03:02:30;;;;;;;9.75;3.78;;;-15.80;94.30;;;;;;5045004;28;20026;-84
2024/01/06 03:04:56;;;;;;;9.27;4.07;;;-15.80;94.50;;;;;;5023003;28;20079;-84
2024/01/06 03:07:22;;;;;;;4.93;3.20;;;-15.90;94.40;;;;;;5024824;28;20029;-84
2024/01/06 03:09:48;;;;;;;6.37;4.80;;;-15.90;94.50;;;;;;5011037;28;20030;-84
2024/01/06 03:12:14;;;;;;;10.30;4.80;;;-16.00;94.60;;;;;;5018001;28;20046;-83
2024/01/06 03:14:40;;;;;;;3.95;3.00;;;-15.90;94.90;;;;;;5008318;28;20026;-83
2024/01/06 03:17:10;;;;;;;6.35;1.90;;;-15.90;94.70;;;;;;5008555;28;20053;-84
2024/01/06 03:19:36;;;;;;;7.05;5.03;;;-15.90;94.70;;;;;;4997556;28;20083;-85
2024/01/06 03:22:02;;;;;;;11.88;5.47;;;-15.90;94.90;;;;;;4996861;28;20025;-83
2024/01/06 03:24:28;;;;;;;14.50;5.87;;;-15.90;95.10;;;;;;5020465;28;20008;-83
2024/01/06 03:26:54;;;;;;;11.17;6.33;;;-15.80;95.10;;;;;;5015286;28;20030;-84
2024/01/06 03:29:19;;;;;;;14.13;6.97;;;-15.80;95.20;;;;;;4982698;28;20039;-85
2024/01/06 03:31:46;;;;;;;6.97;3.50;;;-15.80;95.30;;;;;;5020948;28;20030;-85
2024/01/06 03:34:12;;;;;;;6.30;4.32;;;-15.70;95.30;;;;;;5022335;28;20494;-85
2024/01/06 03:36:40;;;;;;;12.93;6.67;;;-15.70;95.30;;;;;;5014578;28;20018;-83
2024/01/06 03:39:07;;;;;;;16.75;7.25;;;-15.80;95.30;;;;;;5015318;28;20029;-84
2024/01/06 03:41:33;;;;;;;19.90;8.45;;;-15.70;95.50;;;;;;4994880;28;20022;-85
2024/01/06 03:43:59;;;;;;;8.50;4.10;;;-15.50;95.70;;;;;;5016433;28;20125;-84
2024/01/06 03:46:25;;;;;;;10.25;4.50;;;-15.40;95.40;;;;;;5018522;28;20032;-84
2024/01/06 03:48:51;;;;;;;14.77;5.73;;;-15.60;95.10;;;;;;5017358;28;20041;-83
2024/01/06 03:51:17;;;;;;;14.23;7.57;;;-15.60;95.20;;;;;;5015899;28;20021;-85
2024/01/06 03:53:43;;;;;;;13.90;4.73;;;-15.60;95.50;;;;;;4998872;28;20034;-85
2024/01/06 03:56:09;;;;;;;4.23;3.70;;;-15.50;95.40;;;;;;4994213;28;20503;-84
2024/01/06 03:58:35;;;;;;;13.30;6.07;;;-15.60;95.10;;;;;;4997100;28;20021;-86
2024/01/06 04:01:00;;;;;;;6.10;5.50;;;-15.70;95.20;;;;;;5005812;28;20097;-83
2024/01/06 04:03:26;;;;;;;9.90;5.83;;;-15.60;95.50;;;;;;5012505;28;20084;-85
2024/01/06 04:05:52;;;;;;;13.37;5.60;;;-15.60;95.50;;;;;;4993920;28;20025;-84
2024/01/06 04:08:19;;;;;;;11.43;6.93;;;-15.60;95.70;;;;;;4997687;28;20439;-85
2024/01/06 04:10:45;;;;;;;5.65;3.22;;;-15.50;95.90;;;;;;4988445;28;20033;-86
2024/01/06 04:13:11;;;;;;;9.97;5.97;;;-15.30;95.90;;;;;;5029663;28;20435;-83
2024/01/06 04:15:37;;;;;;;7.70;4.25;;;-15.40;95.80;;;;;;5032405;28;20034;-84
2024/01/06 04:18:05;;;;;;;5.90;4.07;;;-15.40;95.60;;;;;;5007839;28;20048;-84
2024/01/06 04:20:31;;;;;;;10.43;4.95;;;-15.50;95.60;;;;;;5029228;28;20025;-84
2024/01/06 04:22:57;;;;;;;7.55;4.03;;;-15.50;95.70;;;;;;5019238;28;20100;-85
2024/01/06 04:25:23;;;;;;;9.17;4.83;;;-15.50;95.70;;;;;;5016768;28;20053;-85
2024/01/06 04:27:49;;;;;;;7.07;3.80;;;-15.50;95.70;;;;;;5004232;28;20040;-85
2024/01/06 04:30:16;;;;;;;8.15;5.10;;;-15.50;95.60;;;;;;5034592;28;20113;-86
2024/01/06 04:32:42;;;;;;;6.68;4.68;;;-15.50;95.70;;;;;;5026875;28;20156;-85
2024/01/06 04:35:08;;;;;;;17.90;3.28;;;-15.50;95.90;;;;;;5015310;28;20014;-84
2024/01/06 04:37:34;;;;;;;13.68;7.43;;;-15.50;95.80;;;;;;5003756;28;20377;-83
2024/01/06 04:40:00;;;;;;;10.07;4.65;;;-15.50;95.90;;;;;;5038704;28;20120;-84
2024/01/06 04:42:26;;;;;;;17.40;9.25;;;-15.40;96.00;;;;;;5025859;28;20033;-84
2024/01/06 04:44:52;;;;;;;9.37;5.43;;;-15.30;96.20;;;;;;5030976;28;20036;-84
2024/01/06 04:47:18;;;;;;;14.27;7.63;;;-15.20;96.40;;;;;;5044366;28;20033;-86
2024/01/06 04:49:44;;;;;;;10.07;5.57;;;-15.10;96.50;;;;;;5016596;28;20044;-85
2024/01/06 04:52:11;;;;;;;14.35;8.85;;;-15.00;96.50;;;;;;5016783;28;20029;-85
2024/01/06 04:54:37;;;;;;;17.52;8.77;;;-14.90;96.50;;;;;;5015644;28;20486;-86
2024/01/06 04:57:04;;;;;;;16.13;8.70;;;-14.90;96.50;;;;;;5032524;28;20116;-84
2024/01/06 04:59:30;;;;;;;17.48;9.25;;;-14.80;96.50;;;;;;5025623;28;20033;-86
2024/01/06 05:01:58;;;;;;;11.40;4.97;;;-14.70;96.40;;;;;;5034571;28;20022;-84
2024/01/06 05:04:24;;;;;;;10.65;5.10;;;-14.70;96.30;;;;;;5014911;28;20025;-85
2024/01/06 05:06:54;;;;;;;17.73;10.70;;;-14.70;96.30;;;;;;5032362;28;20049;-84
2024/01/06 05:09:20;;;;;;;16.02;8.88;;;-14.70;96.30;;;;;;5025718;28;20036;-85
2024/01/06 05:11:46;;;;;;;20.00;8.77;;;-14.70;96.40;;;;;;5023842;28;20091;-84
2024/01/06 05:14:12;;;;;;;14.33;7.17;;;-14.70;96.40;;;;;;5034398;28;20450;-83
2024/01/06 05:16:38;;;;;;;16.52;7.20;;;-14.70;96.20;;;;;;5035096;28;20091;-81
2024/01/06 05:19:04;;;;;;;10.20;6.70;;;-14.80;96.00;;;;;;5016443;28;20034;-84
2024/01/06 05:21:30;;;;;;;9.43;5.17;;;-15.00;95.90;;;;;;5033656;28;20414;-85
2024/01/06 05:23:56;;;;;;;14.40;5.47;;;-15.20;95.90;;;;;;5021656;28;20368;-85
2024/01/06 05:26:22;;;;;;;14.87;7.17;;;-15.40;96.00;;;;;;5015967;28;20470;-85
2024/01/06 05:28:48;;;;;;;15.57;8.43;;;-15.50;96.10;;;;;;5032580;28;20036;-84
2024/01/06 05:31:14;;;;;;;18.55;7.85;;;-15.50;96.40;;;;;;5015773;28;20425;-85
2024/01/06 05:33:40;;;;;;;15.73;7.30;;;-15.50;96.50;;;;;;5033352;28;20091;-84
2024/01/06 05:36:06;;;;;;;10.30;5.83;;;-15.60;96.40;;;;;;5020301;28;20018;-84
2024/01/06 05:38:31;;;;;;;16.87;8.47;;;-15.60;96.40;;;;;;5024847;28;20028;-84
2024/01/06 05:40:57;;;;;;;12.10;6.80;;;-15.70;96.80;;;;;;5026971;28;20030;-84
2024/01/06 05:43:23;;;;;;;16.10;7.87;;;-15.70;96.50;;;;;;5042988;28;20029;-83
2024/01/06 05:45:49;;;;;;;12.07;6.03;;;-15.70;96.60;;;;;;5015404;28;20394;-83
2024/01/06 05:48:15;;;;;;;19.90;6.97;;;-15.70;96.70;;;;;;5033199;28;20065;-82
2024/01/06 05:50:41;;;;;;;15.87;8.83;;;-15.70;96.60;;;;;;5016696;28;20088;-82
2024/01/06 05:53:07;;;;;;;19.77;9.40;;;-15.70;96.80;;;;;;5003867;28;20032;-84
2024/01/06 05:55:33;;;;;;;11.52;5.57;;;-15.70;96.70;;;;;;5011217;28;20037;-84
2024/01/06 05:58:00;;;;;;;14.67;9.00;;;-15.70;96.60;;;;;;5016693;28;20026;-84
2024/01/06 06:00:26;;;;;;;;;;;-15.80;96.60;;;;;;5035556;28;20314;-84
2024/01/06 06:02:52;;;;;;;3.63;2.92;;;-15.80;96.80;;;;;;5036312;28;19905;-84
2024/01/06 06:05:18;;;;;;;8.03;5.53;;;-15.70;96.80;;;;;;5036486;28;20053;-84
2024/01/06 06:07:44;;;;;;;18.20;6.53;;;-15.70;96.80;;;;;;5032452;28;20013;-84
2024/01/06 06:10:10;;;;;;;15.23;6.33;;;-15.60;96.80;;;;;;5056035;28;20043;-83
2024/01/06 06:12:37;;;;;;;;;;;-15.40;97.00;;;;;;5024415;28;20045;-83
2024/01/06 06:15:06;;;;;;;;;;;-15.40;96.70;;;;;;5019031;28;19916;-84
2024/01/06 06:17:32;;;;;;;12.30;10.40;;;-15.30;96.60;;;;;;5033651;28;20318;-85
2024/01/06 06:19:59;;;;;;;7.22;3.22;;;-15.20;96.60;;;;;;5051613;28;20071;-83
2024/01/06 06:22:30;;;;;;;;;;;-15.10;96.60;;;;;;5037698;28;20005;-84
2024/01/06 06:24:59;;;;;;;6.25;4.88;;;-15.00;96.60;;;;;;5050932;28;19949;-85
2024/01/06 06:27:26;;;;;;;6.22;3.85;;;-15.00;96.30;;;;;;5055071;28;20068;-86
2024/01/06 06:29:52;;;;;;;14.43;7.13;;;-15.00;96.30;;;;;;5019217;28;20034;-84
2024/01/06 06:32:18;;;;;;;11.13;6.55;;;-15.10;96.20;;;;;;5015034;28;20025;-84
2024/01/06 06:34:44;;;;;;;7.47;5.33;;;-15.20;96.20;;;;;;5031756;28;20403;-86
2024/01/06 06:37:10;;;;;;;14.88;5.78;;;-15.30;96.40;;;;;;5033280;28;20022;-86
2024/01/06 06:39:36;;;;;;;16.20;6.55;;;-15.30;96.60;;;;;;5017158;28;20021;-86
2024/01/06 06:42:02;;;;;;;21.00;10.33;;;-15.20;96.70;;;;;;5016352;28;20105;-85
2024/01/06 06:44:31;;;;;;;11.95;7.43;;;-15.10;96.90;;;;;;5036387;28;20021;-86
2024/01/06 06:46:57;;;;;;;21.25;9.60;;;-14.90;97.00;;;;;;5039073;28;20040;-87
2024/01/06 06:49:32;;;;;;;17.73;8.10;;;-14.80;96.80;;;;;;5030764;28;20037;-88
2024/01/06 06:51:58;;;;;;;10.52;6.07;;;-14.80;96.90;;;;;;5013694;28;20026;-86
2024/01/06 06:54:24;;;;;;;15.00;9.93;;;-14.80;97.00;;;;;;5023193;28;20096;-85
2024/01/06 06:56:50;;;;;;;20.75;9.43;;;-14.70;96.90;;;;;;5020729;28;20049;-85
2024/01/06 06:59:16;;;;;;;15.85;9.10;;;-14.60;96.90;;;;;;5003858;28;20101;-86
2024/01/06 07:01:42;;;;;;;25.50;10.48;;;-14.60;96.80;;;;;;5021607;28;20025;-87
2024/01/06 07:04:08;;;;;;;15.38;8.93;;;-14.50;96.70;;;;;;5042531;28;20029;-86
2024/01/06 07:06:35;;;;;;;20.45;10.10;;;-14.50;96.70;;;;;;5018628;28;20075;-87
2024/01/06 07:09:00;;;;;;;;;;;-14.40;96.90;;;;;;5019028;28;20528;-83
2024/01/06 07:11:27;;;;;;;15.10;8.67;;;-14.30;96.60;;;;;;5035667;28;19975;-85
2024/01/06 07:13:53;;;;;;;13.45;5.90;;;-14.50;95.90;;;;;;5017959;28;20278;-85
2024/01/06 07:16:19;;;;;;;14.50;7.70;;;-14.70;95.90;;;;;;5016370;28;20018;-83
2024/01/06 07:18:45;;;;;;;19.53;7.33;;;-14.80;96.10;;;;;;4998541;28;20086;-87
2024/01/06 07:21:12;;;;;;;17.40;8.07;;;-14.70;96.30;;;;;;5008556;28;20006;-85
2024/01/06 07:23:38;;;;;;;18.15;9.05;;;-14.70;96.40;;;;;;5009189;28;20033;-86
2024/01/06 07:26:04;;;;;;;13.07;4.80;;;-14.70;96.60;;;;;;5012113;28;20033;-87
2024/01/06 07:28:29;;;;;;;13.30;7.07;;;-14.70;96.40;;;;;;5000358;28;20112;-87
2024/01/06 07:30:55;;;;;;;13.68;6.60;;;-14.80;96.30;;;;;;4999482;28;20030;-89
2024/01/06 07:33:21;;;;;;;18.40;8.83;;;-14.80;96.40;;;;;;5011854;28;20030;-85
2024/01/06 07:35:47;;;;;;;19.52;9.52;;;-14.70;96.60;;;;;;4997082;28;20030;-86
2024/01/06 07:38:13;;;;;;;23.45;5.63;;;-14.60;96.60;;;;;;5000793;28;20032;-84
2024/01/06 07:40:40;;;;;;;10.35;6.20;;;-14.50;96.60;;;;;;5014667;28;20037;-86
2024/01/06 07:43:06;;;;;;;16.85;8.32;;;-14.50;96.40;;;;;;5017410;28;20490;-86
2024/01/06 07:45:32;;;;;;;17.40;6.63;;;-14.60;96.40;;;;;;5017065;28;20018;-85
2024/01/06 07:47:58;;;;;;;18.88;8.80;;;-14.70;96.30;;;;;;5019825;28;20055;-86
2024/01/06 07:50:24;;;;;;;20.73;10.50;;;-14.70;96.70;;;;;;4998935;28;20180;-85
2024/01/06 07:52:50;;;;;;;21.88;10.75;;;-14.60;96.70;;;;;;5017070;28;20488;-84
2024/01/06 07:55:17;;;;;;;22.73;8.82;;;-14.50;96.80;;;;;;5006509;28;20030;-85
2024/01/06 07:57:44;;;;;;;12.50;6.85;;;-14.40;97.00;;;;;;5029641;28;20463;-86
2024/01/06 08:00:10;;;;;;;;;;;-14.40;96.90;;;;;;5030374;28;20029;-89
2024/01/06 08:02:36;;;;;;;15.90;7.80;;;-14.40;96.60;;;;;;5020458;28;19917;-86
2024/01/06 08:05:02;;;;;;;21.63;9.85;;;-14.40;96.40;;;;;;5005968;28;20391;-87
2024/01/06 08:07:28;;;;;;;18.08;9.10;;;-14.30;96.80;;;;;;5019391;28;20026;-88
2024/01/06 08:09:54;;;;;;;7.80;4.95;;;-14.30;96.90;;;;;;5001406;28;20388;-84
2024/01/06 08:12:20;;;;;;;13.57;6.18;;;-14.20;96.70;;;;;;5004943;28;20050;-87
2024/01/06 08:14:45;;;;;;;24.60;10.97;;;-14.30;96.60;;;;;;5019635;28;20032;-81
2024/01/06 08:17:11;;;;;;;31.35;15.10;;;-14.30;96.60;;;;;;5014382;28;20032;-78
2024/01/06 08:19:37;;;;;;;21.30;10.93;;;-14.20;97.00;;;;;;5014288;28;20069;-85
2024/01/06 08:22:03;;;;;;;24.38;9.40;;;-14.10;97.10;;;;;;5023282;28;20399;-85
2024/01/06 08:24:30;;;;;;;19.77;11.23;;;-13.90;97.10;;;;;;5029503;28;20026;-91
2024/01/06 08:26:56;;;;;;;;;;;-13.80;97.10;;;;;;5031348;28;20029;-92
2024/01/06 08:29:22;;;;;;;18.23;7.60;;;-13.60;96.90;;;;;;5031621;28;19910;-94
2024/01/06 08:31:50;;;;;;;18.25;10.15;;;-13.40;96.80;;;;;;5033558;28;20018;-91
2024/01/06 08:34:15;;;;;;;36.92;15.43;;;-13.40;96.60;;;;;;5005807;28;20079;-92
2024/01/06 08:36:41;;;;;;;25.65;13.13;;;-13.20;96.70;;;;;;5024502;28;20133;-90
2024/01/06 08:39:08;;;;;;;24.37;14.97;;;-13.10;96.50;;;;;;5008101;28;20168;-91
2024/01/06 08:41:34;;;;;;;28.05;13.15;;;-13.10;95.60;;;;;;5005860;28;20310;-92
2024/01/06 08:44:00;;;;;;;27.70;13.50;;;-13.10;95.50;;;;;;5018430;28;20021;-87
2024/01/06 08:46:26;;;;;;;32.50;15.10;;;-13.00;95.60;;;;;;5002509;28;20102;-85
2024/01/06 08:48:51;;;;;;;27.27;12.02;;;-12.90;95.60;;;;;;5030384;28;20546;-85
2024/01/06 08:51:17;;;;;;;27.23;14.52;;;-12.90;95.30;;;;;;5023486;28;20494;-84
2024/01/06 08:53:43;;;;;;;23.85;10.85;;;-12.90;95.60;;;;;;4999478;28;20033;-84
2024/01/06 08:56:09;;;;;;;27.10;14.25;;;-12.90;95.70;;;;;;5017904;28;20022;-86
2024/01/06 08:58:35;;;;;;;23.40;12.70;;;-13.00;95.70;;;;;;5006664;28;20132;-86
2024/01/06 09:01:01;;;;;;;24.73;14.60;;;-12.90;95.90;;;;;;5039585;28;20019;-82
2024/01/06 09:03:27;;;;;;;19.30;9.38;;;-12.80;95.90;;;;;;5030993;28;20029;-85
2024/01/06 09:05:53;;;;;;;28.23;14.05;;;-12.80;95.70;;;;;;5015152;28;20026;-85
2024/01/06 09:08:19;;;;;;;18.80;10.13;;;-12.80;95.80;;;;;;5042879;28;20097;-83
2024/01/06 09:10:45;;;;;;;33.17;13.90;;;-12.80;95.80;;;;;;5032457;28;20069;-85
2024/01/06 09:13:11;;;;;;;33.58;14.48;;;-12.90;95.80;;;;;;5030637;28;20042;-84
2024/01/06 09:15:37;;;;;;;24.40;11.35;;;-12.90;96.10;;;;;;5016073;28;20440;-85
2024/01/06 09:18:03;;;;;;;22.60;14.05;;;-12.80;96.50;;;;;;5017148;28;20029;-84
2024/01/06 09:20:29;;;;;;;33.15;13.73;;;-12.80;96.10;;;;;;5034369;28;20022;-86
2024/01/06 09:22:55;;;;;;;23.58;13.75;;;-12.70;96.10;;;;;;5036377;28;20406;-84
2024/01/06 09:25:24;;;;;;;26.05;14.38;;;-12.60;96.10;;;;;;5035991;28;20021;-83
2024/01/06 09:27:51;;;;;;;24.17;11.77;;;-12.50;96.10;;;;;;5021343;28;20558;-85
2024/01/06 09:30:18;;;;;;;24.77;13.85;;;-12.40;96.00;;;;;;5035935;28;20025;-85
2024/01/06 09:32:44;;;;;;;22.77;14.93;;;-12.30;95.80;;;;;;5017312;28;20120;-84
2024/01/06 09:35:10;;;;;;;17.55;9.02;;;-12.30;95.60;;;;;;5034731;28;20030;-84
2024/01/06 09:37:35;;;;;;;28.23;15.00;;;-12.20;95.60;;;;;;5016160;28;20044;-85
2024/01/06 09:40:01;;;;;;;19.98;11.38;;;-12.10;95.40;;;;;;5033281;28;20029;-85
2024/01/06 09:42:27;;;;;;;28.55;15.90;;;-12.00;95.20;;;;;;5016217;28;20083;-86
2024/01/06 09:44:55;;;;;;;24.17;13.80;;;-12.00;94.90;;;;;;5016428;28;20033;-85
2024/01/06 09:47:23;;;;;;;30.02;15.52;;;-12.00;94.80;;;;;;5027556;28;20392;-86
2024/01/06 09:49:50;;;;;;;24.27;13.35;;;-11.90;94.70;;;;;;5034203;28;20490;-85
2024/01/06 09:52:23;;;;;;;26.08;13.38;;;-11.90;94.70;;;;;;5032228;28;20021;-84
2024/01/06 09:54:54;;;;;;;27.35;16.95;;;-11.80;94.60;;;;;;5034019;28;20108;-85
2024/01/06 09:57:23;;;;;;;31.23;18.00;;;-11.80;94.60;;;;;;5034387;28;20036;-83
2024/01/06 09:59:49;;;;;;;43.70;19.80;;;-11.70;94.50;;;;;;5025879;28;20495;-84
2024/01/06 10:02:17;;;;;;;44.72;20.90;;;-11.80;94.10;;;;;;5032438;28;20032;-87
2024/01/06 10:04:46;;;;;;;35.22;16.85;;;-11.80;93.90;;;;;;5018448;28;20033;-86
2024/01/06 10:07:13;;;;;;;28.90;16.70;;;-11.70;93.70;;;;;;5017669;28;20044;-84
2024/01/06 10:09:42;;;;;;;37.28;18.25;;;-11.70;93.60;;;;;;5037897;28;20033;-85
2024/01/06 10:12:08;;;;;;;29.30;16.88;;;-11.70;93.70;;;;;;5044365;28;20041;-85
2024/01/06 10:14:34;;;;;;;27.17;15.50;;;-11.70;93.70;;;;;;5012462;28;20030;-81
2024/01/06 10:17:00;;;;;;;34.00;18.17;;;-11.80;93.80;;;;;;4994991;28;20373;-77
2024/01/06 10:19:26;;;;;;;45.03;21.52;;;-11.90;94.10;;;;;;4994524;28;20030;-78
2024/01/06 10:21:52;;;;;;;34.70;18.90;;;-11.90;94.10;;;;;;5012208;28;20053;-79
2024/01/06 10:24:18;;;;;;;33.93;19.00;;;-11.90;93.90;;;;;;4991687;28;20114;-81
2024/01/06 10:26:47;;;;;;;34.27;19.40;;;-11.80;93.90;;;;;;4995381;28;20271;-85
2024/01/06 10:29:14;;;;;;;36.20;19.23;;;-11.70;93.60;;;;;;5013266;28;20038;-85
2024/01/06 10:31:40;;;;;;;30.35;15.77;;;-11.70;93.30;;;;;;5013826;28;20101;-84
2024/01/06 10:34:06;;;;;;;30.83;16.03;;;-11.70;93.30;;;;;;5014816;28;20033;-88
2024/01/06 10:36:32;;;;;;;32.60;17.40;;;-11.70;93.40;;;;;;5013803;28;20370;-81
2024/01/06 10:38:58;;;;;;;34.37;18.20;;;-11.70;93.60;;;;;;5020846;28;20404;-82
2024/01/06 10:41:25;;;;;;;24.55;13.65;;;-11.80;93.40;;;;;;5015803;28;20030;-81
2024/01/06 10:43:51;;;;;;;31.17;14.32;;;-11.70;93.10;;;;;;5016443;28;20022;-82
2024/01/06 10:46:19;;;;;;;30.80;16.20;;;-11.90;93.40;;;;;;5007129;28;20022;-81
2024/01/06 10:48:46;;;;;;;30.15;17.40;;;-12.00;93.70;;;;;;4997588;28;20046;-82
2024/01/06 10:51:13;;;;;;;21.40;12.18;;;-12.00;93.60;;;;;;5015999;28;20101;-80
2024/01/06 10:53:42;;;;;;;28.70;18.50;;;-12.00;93.40;;;;;;5016332;28;20056;-81
2024/01/06 10:56:10;;;;;;;34.95;17.08;;;-12.10;93.30;;;;;;4998562;28;20030;-81
2024/01/06 10:58:42;;;;;;;26.27;18.15;;;-12.10;93.20;;;;;;5015396;28;20029;-81
2024/01/06 11:01:09;;;;;;;35.15;19.10;;;-12.10;93.20;;;;;;5016550;28;20076;-81
2024/01/06 11:03:38;;;;;;;28.80;15.73;;;-12.10;93.20;;;;;;5016630;28;20025;-79
2024/01/06 11:06:05;;;;;;;38.92;17.05;;;-12.10;93.00;;;;;;5017418;28;20026;-80
2024/01/06 11:08:35;;;;;;;26.95;14.43;;;-12.00;93.30;;;;;;5018814;28;20073;-81
2024/01/06 11:11:02;;;;;;;31.17;19.63;;;-12.00;92.90;;;;;;5007578;28;20068;-82
2024/01/06 11:13:28;;;;;;;44.50;23.27;;;-12.00;92.50;;;;;;5045646;28;20155;-80
2024/01/06 11:15:54;;;;;;;69.05;32.42;;;-12.00;92.70;;;;;;5039058;28;20029;-82
2024/01/06 11:18:39;;;;;;;47.88;25.02;;;-12.00;92.90;;;;;;5007866;28;20548;-81
2024/01/06 11:21:17;;;;;;;46.55;23.92;;;-12.00;92.80;;;;;;5008732;28;20021;-80
2024/01/06 11:23:44;;;;;;;48.90;25.60;;;-12.00;92.60;;;;;;5013757;28;20036;-80
2024/01/06 11:26:10;;;;;;;48.40;25.23;;;-12.00;92.70;;;;;;5035387;28;20026;-81
2024/01/06 11:28:52;;;;;;;38.97;21.40;;;-12.00;92.40;;;;;;5031134;28;20031;-79
2024/01/06 11:31:18;;;;;;;50.55;23.42;;;-12.00;92.10;;;;;;5034838;28;20021;-79
2024/01/06 11:33:47;;;;;;;43.60;20.30;;;-12.00;91.80;;;;;;5017574;28;20506;-78
2024/01/06 11:36:15;;;;;;;38.92;21.90;;;-12.10;92.10;;;;;;4996642;28;20037;-77
2024/01/06 11:38:41;;;;;;;36.10;19.83;;;-12.10;92.30;;;;;;5019050;28;20025;-77
2024/01/06 11:41:08;;;;;;;33.13;19.73;;;-12.00;92.40;;;;;;4997026;28;20022;-77
2024/01/06 11:43:35;;;;;;;;;;;-12.00;92.40;;;;;;5032859;28;20010;-78
2024/01/06 11:46:02;;;;;;;33.78;18.73;;;-12.00;92.40;;;;;;5034603;28;19905;-77
2024/01/06 11:48:31;;;;;;;38.08;19.48;;;-12.00;92.20;;;;;;5034241;28;20083;-77
2024/01/06 11:50:58;;;;;;;35.67;19.65;;;-12.10;91.90;;;;;;5005553;28;20415;-77
2024/01/06 11:53:26;;;;;;;;;;;-12.10;91.80;;;;;;5030008;28;20383;-77
2024/01/06 11:55:52;;;;;;;31.58;15.40;;;-12.20;91.70;;;;;;5035888;28;19909;-79
2024/01/06 11:58:18;;;;;;;43.47;23.60;;;-12.20;91.80;;;;;;5035088;28;20021;-79
2024/01/06 12:00:54;;;;;;;45.05;23.73;;;-12.30;92.20;;;;;;4997125;28;20041;-76
2024/01/06 12:03:20;;;;;;;37.05;19.92;;;-12.20;92.40;;;;;;5027497;28;20021;-79
2024/01/06 12:05:46;;;;;;;45.50;21.05;;;-12.20;92.60;;;;;;5031363;28;20387;-79
2024/01/06 12:08:11;;;;;;;51.38;23.55;;;-12.10;92.70;;;;;;5006342;28;20048;-78
2024/01/06 12:10:37;;;;;;;40.95;23.23;;;-12.10;92.70;;;;;;5021078;28;20053;-77
2024/01/06 12:13:08;;;;;;;47.28;24.77;;;-12.00;92.80;;;;;;5032509;28;20044;-80
2024/01/06 12:15:34;;;;;;;46.85;23.75;;;-12.00;92.80;;;;;;5033590;28;20478;-78
2024/01/06 12:18:03;;;;;;;44.85;27.42;;;-11.90;93.10;;;;;;5048524;28;20025;-77
2024/01/06 12:20:29;;;;;;;46.10;24.15;;;-12.00;93.00;;;;;;5011006;28;20057;-78
2024/01/06 12:22:56;;;;;;;44.60;22.90;;;-12.00;92.70;;;;;;5033899;28;20053;-79
2024/01/06 12:25:22;;;;;;;47.63;21.67;;;-12.00;92.50;;;;;;5019420;28;20037;-79